createdAt,value
2023-03-29T00:00:11.291Z,72.50
2023-03-29T00:02:40.049Z,71.60
2023-03-29T00:05:09.037Z,71.30
2023-03-29T00:07:36.710Z,71.20
2023-03-29T00:10:04.856Z,71.00
2023-03-29T00:12:33.105Z,71.40
2023-03-29T00:15:00.882Z,70.70
2023-03-29T00:17:29.043Z,72.60
2023-03-29T00:19:56.848Z,71.10
2023-03-29T00:22:24.640Z,70.90
2023-03-29T00:24:55.852Z,72.20
2023-03-29T00:27:23.670Z,72.10
2023-03-29T00:29:51.432Z,71.90
2023-03-29T00:32:19.152Z,71.00
2023-03-29T00:34:50.941Z,70.30
2023-03-29T00:37:19.445Z,70.40
2023-03-29T00:39:47.072Z,70.80
2023-03-29T00:42:16.910Z,69.80
2023-03-29T00:45:01.796Z,71.60
2023-03-29T00:47:52.140Z,72.70
2023-03-29T00:50:31.008Z,73.60
2023-03-29T00:53:09.653Z,72.50
2023-03-29T00:56:01.743Z,72.90
2023-03-29T00:58:37.766Z,74.00
2023-03-29T01:01:11.218Z,74.30
2023-03-29T01:03:46.695Z,75.30
2023-03-29T01:06:19.172Z,74.70
2023-03-29T01:09:01.529Z,75.70
2023-03-29T01:11:54.892Z,75.00
2023-03-29T01:14:40.220Z,75.20
2023-03-29T01:17:08.594Z,75.20
2023-03-29T01:19:44.369Z,73.90
2023-03-29T01:22:31.532Z,73.90
2023-03-29T01:25:32.147Z,74.10
2023-03-29T01:28:02.700Z,75.50
2023-03-29T01:30:45.678Z,73.40
2023-03-29T01:33:21.381Z,74.00
2023-03-29T01:36:01.972Z,72.70
2023-03-29T01:38:48.582Z,73.30
2023-03-29T01:41:16.683Z,73.80
2023-03-29T01:43:56.633Z,74.20
2023-03-29T01:46:29.436Z,72.90
2023-03-29T01:48:59.973Z,73.40
2023-03-29T01:51:37.983Z,74.20
2023-03-29T01:54:15.413Z,74.50
2023-03-29T01:56:45.772Z,75.00
2023-03-29T01:59:22.759Z,74.80
2023-03-29T02:01:54.845Z,75.60
2023-03-29T02:04:30.917Z,75.50
2023-03-29T02:07:01.985Z,76.20
2023-03-29T02:09:32.149Z,76.80
2023-03-29T02:12:02.220Z,76.20
2023-03-29T02:14:33.555Z,77.20
2023-03-29T02:17:23.252Z,76.90
2023-03-29T02:20:17.675Z,78.10
2023-03-29T02:23:14.562Z,77.50
2023-03-29T02:25:45.738Z,77.90
2023-03-29T02:28:14.383Z,77.60
2023-03-29T02:31:20.344Z,77.30
2023-03-29T02:33:54.962Z,78.10
2023-03-29T02:36:31.957Z,78.60
2023-03-29T02:39:02.065Z,77.80
2023-03-29T02:41:30.540Z,78.00
2023-03-29T02:44:00.393Z,79.30
2023-03-29T02:46:28.589Z,78.30
2023-03-29T02:48:58.527Z,79.30
2023-03-29T02:51:32.747Z,78.70
2023-03-29T02:54:06.116Z,79.00
2023-03-29T02:56:49.339Z,79.20
2023-03-29T02:59:19.540Z,80.20
2023-03-29T03:01:47.268Z,80.00
2023-03-29T03:04:15.698Z,80.20
2023-03-29T03:06:44.611Z,81.30
2023-03-29T03:09:12.659Z,81.60
2023-03-29T03:11:43.768Z,81.10
2023-03-29T03:14:11.731Z,80.20
2023-03-29T03:16:39.570Z,82.70
2023-03-29T03:19:07.526Z,82.50
2023-03-29T03:21:37.830Z,82.00
2023-03-29T03:24:07.945Z,83.10
2023-03-29T03:26:36.386Z,81.50
2023-03-29T03:29:06.318Z,81.40
2023-03-29T03:31:55.362Z,82.20
2023-03-29T03:34:43.941Z,82.80
2023-03-29T03:37:12.278Z,82.80
2023-03-29T03:39:40.272Z,80.70
2023-03-29T03:42:09.858Z,81.20
2023-03-29T03:44:42.877Z,82.80
2023-03-29T03:47:42.936Z,82.80
2023-03-29T03:50:23.156Z,81.40
2023-03-29T03:52:50.854Z,81.00
2023-03-29T03:55:18.604Z,82.50
2023-03-29T03:57:53.417Z,82.70
2023-03-29T04:00:21.770Z,82.20
2023-03-29T04:03:02.477Z,82.60
2023-03-29T04:05:31.464Z,83.00
2023-03-29T04:08:00.459Z,83.50
2023-03-29T04:10:58.572Z,84.50
2023-03-29T04:13:31.988Z,84.10
2023-03-29T04:16:14.106Z,83.90
2023-03-29T04:18:41.963Z,82.40
2023-03-29T04:21:10.103Z,82.10
2023-03-29T04:23:38.654Z,84.80
2023-03-29T04:26:06.586Z,81.60
2023-03-29T04:28:47.604Z,81.10
2023-03-29T04:31:20.442Z,82.20
2023-03-29T04:34:01.923Z,82.20
2023-03-29T04:36:29.828Z,82.20
2023-03-29T04:39:02.028Z,81.10
2023-03-29T04:41:32.752Z,80.80
2023-03-29T04:44:07.014Z,81.50
2023-03-29T04:46:35.580Z,82.70
2023-03-29T04:49:18.182Z,82.00
2023-03-29T04:51:49.918Z,81.30
2023-03-29T04:54:21.849Z,81.80
2023-03-29T04:57:17.445Z,81.60
2023-03-29T05:00:15.372Z,81.00
2023-03-29T05:03:01.296Z,79.60
2023-03-29T05:05:32.319Z,79.90
2023-03-29T05:08:03.544Z,80.60
2023-03-29T05:10:54.251Z,80.00
2023-03-29T05:13:22.314Z,79.60
2023-03-29T05:15:50.050Z,79.90
2023-03-29T05:18:17.833Z,80.00
2023-03-29T05:20:45.963Z,80.30
2023-03-29T05:23:17.644Z,80.30
2023-03-29T05:26:04.767Z,80.70
2023-03-29T05:28:33.885Z,78.80
2023-03-29T05:31:06.029Z,79.40
2023-03-29T05:33:36.764Z,80.40
2023-03-29T05:36:09.289Z,81.00
2023-03-29T05:38:42.406Z,79.60
2023-03-29T05:41:10.913Z,81.30
2023-03-29T05:43:58.028Z,81.60
2023-03-29T05:46:27.126Z,79.00
2023-03-29T05:48:57.626Z,80.20
2023-03-29T05:51:42.967Z,78.90
2023-03-29T05:54:10.887Z,79.10
2023-03-29T05:56:38.711Z,80.50
2023-03-29T05:59:08.557Z,78.90
2023-03-29T06:01:36.993Z,77.10
2023-03-29T06:04:08.474Z,77.80
2023-03-29T06:06:53.171Z,77.90
2023-03-29T06:09:21.339Z,78.90
2023-03-29T06:11:56.555Z,78.90
2023-03-29T06:14:31.485Z,77.50
2023-03-29T06:17:12.394Z,77.70
2023-03-29T06:19:40.386Z,79.00
2023-03-29T06:22:08.119Z,77.70
2023-03-29T06:24:36.022Z,79.20
2023-03-29T06:27:10.672Z,79.20
2023-03-29T06:29:38.674Z,79.80
2023-03-29T06:32:07.074Z,79.60
2023-03-29T06:34:51.006Z,80.00
2023-03-29T06:37:32.052Z,80.30
2023-03-29T06:40:10.456Z,79.50
2023-03-29T06:42:44.767Z,80.10
2023-03-29T06:45:37.875Z,78.70
2023-03-29T06:48:12.381Z,80.10
2023-03-29T06:50:41.201Z,79.30
2023-03-29T06:53:15.793Z,77.90
2023-03-29T06:55:46.037Z,77.20
2023-03-29T06:58:37.337Z,77.30
2023-03-29T07:01:14.381Z,78.60
2023-03-29T07:03:57.660Z,78.70
2023-03-29T07:06:31.979Z,78.90
2023-03-29T07:09:01.846Z,78.10
2023-03-29T07:11:47.686Z,78.60
2023-03-29T07:14:28.659Z,78.30
2023-03-29T07:16:58.508Z,77.40
2023-03-29T07:19:34.555Z,76.70
2023-03-29T07:22:08.412Z,76.90
2023-03-29T07:24:47.063Z,77.40
2023-03-29T07:27:15.033Z,76.30
2023-03-29T07:29:43.281Z,76.90
2023-03-29T07:32:11.508Z,75.60
2023-03-29T07:34:59.392Z,75.80
2023-03-29T07:37:34.480Z,75.80
2023-03-29T07:40:04.682Z,75.20
2023-03-29T07:42:32.319Z,74.30
2023-03-29T07:45:00.333Z,73.60
2023-03-29T07:47:36.375Z,74.60
2023-03-29T07:50:04.937Z,73.10
2023-03-29T07:52:33.020Z,73.70
2023-03-29T07:55:02.436Z,69.50
2023-03-29T07:57:53.677Z,72.60
2023-03-29T08:00:25.337Z,69.40
2023-03-29T08:03:13.278Z,68.60
2023-03-29T08:05:44.195Z,69.30
2023-03-29T08:08:14.515Z,71.50
2023-03-29T08:10:55.414Z,69.40
2023-03-29T08:13:35.165Z,66.50
2023-03-29T08:16:29.121Z,67.40
2023-03-29T08:19:05.375Z,66.40
2023-03-29T08:21:52.307Z,66.50
2023-03-29T08:24:22.348Z,63.90
2023-03-29T08:26:56.161Z,62.70
2023-03-29T08:29:27.159Z,62.70
2023-03-29T08:31:57.296Z,62.10
2023-03-29T08:34:25.830Z,62.10
2023-03-29T08:37:15.884Z,60.60
2023-03-29T08:39:47.203Z,57.50
2023-03-29T08:42:59.902Z,53.60
2023-03-29T08:46:00.304Z,53.80
2023-03-29T08:48:46.094Z,53.60
2023-03-29T08:51:27.704Z,52.10
2023-03-29T08:54:38.870Z,52.10
2023-03-29T08:57:55.031Z,54.50
2023-03-29T09:00:33.170Z,55.00
2023-03-29T09:03:05.471Z,53.70
2023-03-29T09:05:44.302Z,54.30
2023-03-29T09:08:23.481Z,55.30
2023-03-29T09:11:15.329Z,55.60
2023-03-29T09:14:05.493Z,54.30
2023-03-29T09:16:48.609Z,53.30
2023-03-29T09:20:01.868Z,54.20
2023-03-29T09:22:57.808Z,53.90
2023-03-29T09:25:54.145Z,52.90
2023-03-29T09:28:40.791Z,53.20
2023-03-29T09:31:23.175Z,51.40
2023-03-29T09:34:04.596Z,51.60
2023-03-29T09:37:21.829Z,51.70
2023-03-29T09:39:53.247Z,52.60
2023-03-29T09:42:27.974Z,52.60
2023-03-29T09:45:08.633Z,53.80
2023-03-29T09:48:16.874Z,53.00
2023-03-29T09:50:52.387Z,53.70
2023-03-29T09:53:22.100Z,55.30
2023-03-29T09:56:00.597Z,53.10
2023-03-29T09:58:44.544Z,53.60
2023-03-29T10:01:15.889Z,52.90
2023-03-29T10:03:50.604Z,54.20
2023-03-29T10:06:20.729Z,53.50
2023-03-29T10:08:59.097Z,53.70
2023-03-29T10:11:38.543Z,53.80
2023-03-29T10:14:13.455Z,55.80
2023-03-29T10:16:47.771Z,55.50
2023-03-29T10:19:17.509Z,53.90
2023-03-29T10:21:48.999Z,54.80
2023-03-29T10:24:26.700Z,54.50
2023-03-29T10:26:59.469Z,54.80
2023-03-29T10:29:27.956Z,54.70
2023-03-29T10:31:55.912Z,55.70
2023-03-29T10:34:26.418Z,56.30
2023-03-29T10:37:03.374Z,56.00
2023-03-29T10:39:34.790Z,55.80
2023-03-29T10:42:04.250Z,55.30
2023-03-29T10:44:35.612Z,56.00
2023-03-29T10:47:15.251Z,55.40
2023-03-29T10:49:47.371Z,56.20
2023-03-29T10:52:17.357Z,56.50
2023-03-29T10:54:46.928Z,55.10
2023-03-29T10:57:35.309Z,55.20
2023-03-29T11:00:16.385Z,55.60
2023-03-29T11:02:47.163Z,56.30
2023-03-29T11:05:14.913Z,56.70
2023-03-29T11:07:58.917Z,55.60
2023-03-29T11:10:46.897Z,58.40
2023-03-29T11:13:38.335Z,54.60
2023-03-29T11:16:35.008Z,55.00
2023-03-29T11:19:33.378Z,58.10
2023-03-29T11:22:17.677Z,54.70
2023-03-29T11:24:48.134Z,56.30
2023-03-29T11:27:38.844Z,56.70
2023-03-29T11:30:29.207Z,57.80
2023-03-29T11:33:21.248Z,58.70
2023-03-29T11:36:08.006Z,56.60
2023-03-29T11:38:53.724Z,56.80
2023-03-29T11:41:36.045Z,55.80
2023-03-29T11:44:19.525Z,56.10
2023-03-29T11:47:13.002Z,57.00
2023-03-29T11:49:57.964Z,56.90
2023-03-29T11:52:40.944Z,56.50
2023-03-29T11:55:13.941Z,58.10
2023-03-29T11:57:50.184Z,55.20
2023-03-29T12:00:27.492Z,58.90
2023-03-29T12:03:11.138Z,55.60
2023-03-29T12:06:04.524Z,56.40
2023-03-29T12:08:37.692Z,56.80
2023-03-29T12:11:17.058Z,56.40
2023-03-29T12:13:49.618Z,57.00
2023-03-29T12:16:41.799Z,56.50
2023-03-29T12:19:26.105Z,58.50
2023-03-29T12:21:57.323Z,56.10
2023-03-29T12:24:32.486Z,56.00
2023-03-29T12:27:12.505Z,57.50
2023-03-29T12:29:50.428Z,58.30
2023-03-29T12:32:56.378Z,56.80
2023-03-29T12:36:14.622Z,55.10
2023-03-29T12:38:52.575Z,56.90
2023-03-29T12:41:41.742Z,55.10
2023-03-29T12:44:28.297Z,56.80
2023-03-29T12:47:02.110Z,55.10
2023-03-29T12:49:38.949Z,56.10
2023-03-29T12:52:35.808Z,55.10
2023-03-29T12:55:31.305Z,55.10
2023-03-29T12:58:08.578Z,57.60
2023-03-29T13:00:45.343Z,57.00
2023-03-29T13:03:34.661Z,54.20
2023-03-29T13:06:09.430Z,56.50
2023-03-29T13:08:38.420Z,56.90
2023-03-29T13:11:10.301Z,55.40
2023-03-29T13:13:41.092Z,53.50
2023-03-29T13:16:17.148Z,53.80
2023-03-29T13:19:03.166Z,54.10
2023-03-29T13:21:45.858Z,55.90
2023-03-29T13:24:50.982Z,55.40
2023-03-29T13:27:45.148Z,54.70
2023-03-29T13:30:36.240Z,53.20
2023-03-29T13:33:14.724Z,52.30
2023-03-29T13:36:08.794Z,55.60
2023-03-29T13:39:07.107Z,54.60
2023-03-29T13:41:41.008Z,56.40
2023-03-29T13:44:26.174Z,55.90
2023-03-29T13:47:33.037Z,55.70
2023-03-29T13:50:06.562Z,55.50
2023-03-29T13:52:39.356Z,54.50
2023-03-29T13:55:21.498Z,55.50
2023-03-29T13:58:04.050Z,55.50
2023-03-29T14:00:38.814Z,55.00
2023-03-29T14:03:12.854Z,55.40
2023-03-29T14:05:44.477Z,55.10
2023-03-29T14:08:26.387Z,56.60
2023-03-29T14:10:56.760Z,55.40
2023-03-29T14:13:26.188Z,54.80
2023-03-29T14:15:57.430Z,55.00
2023-03-29T14:18:27.863Z,55.00
2023-03-29T14:20:56.296Z,55.10
2023-03-29T14:23:36.905Z,56.10
2023-03-29T14:26:15.742Z,56.10
2023-03-29T14:28:49.010Z,55.80
2023-03-29T14:31:37.939Z,56.50
2023-03-29T14:34:19.487Z,55.20
2023-03-29T14:36:49.382Z,54.90
2023-03-29T14:39:20.168Z,54.60
2023-03-29T14:41:57.108Z,54.40
2023-03-29T14:44:33.322Z,54.20
2023-03-29T14:47:03.281Z,54.90
2023-03-29T14:49:32.425Z,56.00
2023-03-29T14:52:00.467Z,56.80
2023-03-29T14:54:31.937Z,54.50
2023-03-29T14:57:00.245Z,55.00
2023-03-29T14:59:39.132Z,55.10
2023-03-29T15:02:27.655Z,55.90
2023-03-29T15:05:04.068Z,55.30
2023-03-29T15:07:34.312Z,56.30
2023-03-29T15:10:05.276Z,54.80
2023-03-29T15:12:33.936Z,56.50
2023-03-29T15:15:02.814Z,55.60
2023-03-29T15:17:50.472Z,57.00
2023-03-29T15:20:28.221Z,56.30
2023-03-29T15:23:19.154Z,57.80
2023-03-29T15:25:59.463Z,57.30
2023-03-29T15:28:33.090Z,57.50
2023-03-29T15:31:10.986Z,57.70
2023-03-29T15:33:40.780Z,57.10
2023-03-29T15:36:10.501Z,57.80
2023-03-29T15:38:44.545Z,57.00
2023-03-29T15:41:14.839Z,58.10
2023-03-29T15:43:43.137Z,55.40
2023-03-29T15:46:13.702Z,57.80
2023-03-29T15:48:41.827Z,58.50
2023-03-29T15:51:12.609Z,58.50
2023-03-29T15:53:41.054Z,58.80
2023-03-29T15:56:13.528Z,58.80
2023-03-29T15:58:41.369Z,58.10
2023-03-29T16:01:36.713Z,57.20
2023-03-29T16:04:16.597Z,56.00
2023-03-29T16:06:46.990Z,56.00
2023-03-29T16:09:15.866Z,56.00
2023-03-29T16:11:44.901Z,55.80
2023-03-29T16:14:27.540Z,56.80
2023-03-29T16:16:58.789Z,59.20
2023-03-29T16:19:27.672Z,58.40
2023-03-29T16:21:56.229Z,57.70
2023-03-29T16:24:26.842Z,57.60
2023-03-29T16:26:57.156Z,58.30
2023-03-29T16:29:25.754Z,58.90
2023-03-29T16:31:54.475Z,59.70
2023-03-29T16:34:23.017Z,59.90
2023-03-29T16:36:51.215Z,59.20
2023-03-29T16:39:19.191Z,58.20
2023-03-29T16:41:49.062Z,59.20
2023-03-29T16:44:22.477Z,59.10
2023-03-29T16:46:54.364Z,59.80
2023-03-29T16:49:22.580Z,58.60
2023-03-29T16:51:50.605Z,58.10
2023-03-29T16:54:19.066Z,58.50
2023-03-29T16:56:47.297Z,59.80
2023-03-29T16:59:15.581Z,59.90
2023-03-29T17:01:43.451Z,60.30
2023-03-29T17:04:11.794Z,60.30
2023-03-29T17:06:39.850Z,60.60
2023-03-29T17:09:07.818Z,61.60
2023-03-29T17:11:36.102Z,61.70
2023-03-29T17:14:03.891Z,62.00
2023-03-29T17:16:31.638Z,62.10
2023-03-29T17:19:00.792Z,62.50
2023-03-29T17:21:29.701Z,62.90
2023-03-29T17:23:57.622Z,62.80
2023-03-29T17:26:26.869Z,63.40
2023-03-29T17:28:54.895Z,63.60
2023-03-29T17:31:22.517Z,64.40
2023-03-29T17:33:52.832Z,64.80
2023-03-29T17:36:24.317Z,63.60
2023-03-29T17:38:54.928Z,64.20
2023-03-29T17:41:23.689Z,64.40
2023-03-29T17:43:52.080Z,64.60
2023-03-29T17:46:23.730Z,65.60
2023-03-29T17:48:51.863Z,66.30
2023-03-29T17:51:20.147Z,66.30
2023-03-29T17:53:48.564Z,66.60
2023-03-29T17:56:16.393Z,66.90
2023-03-29T17:58:44.692Z,67.20
2023-03-29T18:01:15.655Z,68.00
2023-03-29T18:03:43.741Z,69.40
2023-03-29T18:06:14.678Z,69.80
2023-03-29T18:08:43.416Z,70.40
2023-03-29T18:11:17.327Z,70.50
2023-03-29T18:13:45.565Z,71.00
2023-03-29T18:16:14.446Z,71.20
2023-03-29T18:18:43.936Z,72.30
2023-03-29T18:21:12.102Z,72.20
2023-03-29T18:23:46.047Z,72.40
2023-03-29T18:26:16.723Z,71.60
2023-03-29T18:28:49.066Z,72.10
2023-03-29T18:31:20.983Z,72.30
2023-03-29T18:33:49.338Z,72.50
2023-03-29T18:36:18.183Z,72.80
2023-03-29T18:38:47.977Z,72.80
2023-03-29T18:41:16.479Z,72.80
2023-03-29T18:43:45.494Z,73.70
2023-03-29T18:46:14.197Z,72.90
2023-03-29T18:48:42.760Z,72.80
2023-03-29T18:51:13.397Z,73.40
2023-03-29T18:53:44.199Z,73.90
2023-03-29T18:56:12.355Z,74.20
2023-03-29T18:58:42.438Z,74.30
2023-03-29T19:01:11.725Z,74.50
2023-03-29T19:03:40.976Z,75.00
2023-03-29T19:06:12.473Z,75.60
2023-03-29T19:08:42.630Z,76.50
2023-03-29T19:11:15.748Z,77.60
2023-03-29T19:13:46.447Z,76.90
2023-03-29T19:16:15.572Z,78.40
2023-03-29T19:18:44.545Z,78.70
2023-03-29T19:21:14.112Z,79.00
2023-03-29T19:23:42.941Z,78.30
2023-03-29T19:26:12.139Z,77.10
2023-03-29T19:28:41.869Z,76.90
2023-03-29T19:31:11.159Z,77.30
2023-03-29T19:33:40.951Z,77.70
2023-03-29T19:36:09.515Z,77.90
2023-03-29T19:38:38.329Z,78.30
2023-03-29T19:41:08.556Z,78.80
2023-03-29T19:43:37.808Z,79.10
2023-03-29T19:46:12.151Z,78.80
2023-03-29T19:48:40.835Z,79.50
2023-03-29T19:51:09.463Z,79.20
2023-03-29T19:53:39.012Z,79.30
2023-03-29T19:56:11.153Z,79.50
2023-03-29T19:58:39.166Z,79.70
2023-03-29T20:01:07.624Z,79.80
2023-03-29T20:03:36.926Z,80.00
2023-03-29T20:06:06.566Z,80.00
2023-03-29T20:08:37.073Z,80.70
2023-03-29T20:11:10.369Z,81.60
2023-03-29T20:13:41.232Z,81.80
2023-03-29T20:16:11.538Z,82.00
2023-03-29T20:18:40.551Z,81.80
2023-03-29T20:21:09.785Z,82.10
2023-03-29T20:23:37.839Z,81.70
2023-03-29T20:26:05.482Z,81.20
2023-03-29T20:28:33.981Z,80.20
2023-03-29T20:31:08.127Z,80.50
2023-03-29T20:33:36.500Z,80.00
2023-03-29T20:36:04.739Z,81.80
2023-03-29T20:38:33.197Z,81.40
2023-03-29T20:41:01.180Z,82.80
2023-03-29T20:43:29.906Z,82.40
2023-03-29T20:45:58.212Z,82.70
2023-03-29T20:48:31.818Z,82.70
2023-03-29T20:51:03.251Z,83.70
2023-03-29T20:53:35.754Z,83.70
2023-03-29T20:56:03.594Z,83.30
2023-03-29T20:58:32.161Z,83.70
2023-03-29T21:00:59.933Z,83.70
2023-03-29T21:03:27.664Z,84.50
2023-03-29T21:05:58.553Z,84.40
2023-03-29T21:08:28.667Z,84.00
2023-03-29T21:10:56.406Z,83.90
2023-03-29T21:13:24.235Z,84.00
2023-03-29T21:15:52.122Z,83.80
2023-03-29T21:18:20.193Z,84.20
2023-03-29T21:20:49.724Z,84.20
2023-03-29T21:23:17.399Z,83.80
2023-03-29T21:25:45.438Z,84.40
2023-03-29T21:28:13.533Z,85.00
2023-03-29T21:30:41.476Z,85.60
2023-03-29T21:33:09.173Z,85.50
2023-03-29T21:35:37.226Z,85.80
2023-03-29T21:38:04.934Z,86.30
2023-03-29T21:40:32.740Z,86.60
2023-03-29T21:43:00.618Z,86.70
2023-03-29T21:45:28.295Z,87.20
2023-03-29T21:47:56.178Z,87.00
2023-03-29T21:50:25.139Z,87.50
2023-03-29T21:52:52.868Z,87.70
2023-03-29T21:55:20.478Z,87.70
2023-03-29T21:57:48.968Z,87.60
2023-03-29T22:00:18.006Z,87.70
2023-03-29T22:02:46.742Z,88.20
2023-03-29T22:05:15.160Z,88.70
2023-03-29T22:07:42.818Z,88.70
2023-03-29T22:10:12.474Z,88.40
2023-03-29T22:12:41.397Z,88.80
2023-03-29T22:15:13.896Z,89.70
2023-03-29T22:17:43.004Z,89.50
2023-03-29T22:20:13.331Z,89.60
2023-03-29T22:22:45.577Z,90.00
2023-03-29T22:25:13.633Z,89.50
2023-03-29T22:27:44.042Z,89.50
2023-03-29T22:30:12.767Z,89.60
2023-03-29T22:32:40.512Z,90.10
2023-03-29T22:35:09.350Z,90.00
2023-03-29T22:37:42.026Z,89.70
2023-03-29T22:40:11.000Z,89.70
2023-03-29T22:42:38.720Z,89.50
2023-03-29T22:45:07.850Z,90.00
2023-03-29T22:47:35.650Z,90.40
2023-03-29T22:50:03.548Z,90.50
2023-03-29T22:52:31.515Z,90.60
2023-03-29T22:54:59.164Z,90.60
2023-03-29T22:57:26.994Z,90.80
2023-03-29T22:59:54.814Z,90.90
2023-03-29T23:02:22.648Z,91.40
2023-03-29T23:04:50.312Z,91.40
2023-03-29T23:07:18.356Z,91.70
2023-03-29T23:09:46.247Z,92.20
2023-03-29T23:12:13.929Z,92.10
2023-03-29T23:14:42.946Z,92.70
2023-03-29T23:17:10.998Z,92.50
2023-03-29T23:19:41.247Z,92.20
2023-03-29T23:22:08.840Z,92.60
2023-03-29T23:24:36.439Z,92.50
2023-03-29T23:27:05.582Z,92.90
2023-03-29T23:29:34.622Z,92.90
2023-03-29T23:32:02.209Z,92.80
2023-03-29T23:34:30.691Z,93.50
2023-03-29T23:36:58.860Z,93.60
2023-03-29T23:39:26.405Z,93.20
2023-03-29T23:41:53.993Z,93.30
2023-03-29T23:44:21.627Z,93.80
2023-03-29T23:46:49.300Z,94.30
2023-03-29T23:49:17.367Z,94.00
2023-03-29T23:51:45.072Z,94.30
2023-03-29T23:54:13.365Z,93.40
2023-03-29T23:56:41.150Z,93.80
2023-03-29T23:59:09.003Z,93.00
